createdAt,value
2024-01-09T00:02:15.855Z,55.76
2024-01-09T00:05:21.614Z,55.49
2024-01-09T00:08:29.182Z,55.42
2024-01-09T00:11:35.264Z,55.58
2024-01-09T00:14:41.750Z,55.41
2024-01-09T00:17:50.201Z,55.70
2024-01-09T00:20:56.913Z,55.73
2024-01-09T00:24:02.626Z,55.95
2024-01-09T00:27:09.117Z,55.92
2024-01-09T00:30:16.523Z,56.07
2024-01-09T00:33:25.926Z,56.33
2024-01-09T00:36:32.189Z,56.27
2024-01-09T00:39:38.784Z,56.05
2024-01-09T00:42:44.601Z,56.18
2024-01-09T00:45:51.263Z,56.17
2024-01-09T00:48:59.910Z,55.82
2024-01-09T00:52:07.751Z,56.10
2024-01-09T00:55:14.546Z,55.90
2024-01-09T00:58:21.222Z,55.74
2024-01-09T01:01:26.904Z,55.75
2024-01-09T01:04:36.017Z,55.65
2024-01-09T01:07:41.738Z,55.55
2024-01-09T01:10:48.225Z,55.73
2024-01-09T01:13:54.050Z,55.50
2024-01-09T01:17:00.562Z,55.54
2024-01-09T01:20:11.420Z,55.60
2024-01-09T01:23:17.996Z,55.35
2024-01-09T01:26:24.012Z,55.55
2024-01-09T01:29:31.660Z,55.35
2024-01-09T01:32:37.504Z,55.45
2024-01-09T01:35:46.942Z,55.17
2024-01-09T01:38:52.791Z,55.19
2024-01-09T01:42:01.477Z,55.36
2024-01-09T01:45:19.919Z,55.06
2024-01-09T01:48:26.752Z,54.61
2024-01-09T01:51:35.242Z,54.57
2024-01-09T01:54:45.220Z,54.35
2024-01-09T01:57:53.946Z,54.10
2024-01-09T02:01:00.577Z,54.31
2024-01-09T02:04:08.058Z,54.37
2024-01-09T02:07:17.306Z,54.09
2024-01-09T02:10:24.549Z,53.96
2024-01-09T02:13:31.130Z,53.87
2024-01-09T02:16:38.314Z,54.02
2024-01-09T02:19:44.134Z,54.07
2024-01-09T02:22:53.666Z,54.02
2024-01-09T02:26:07.052Z,54.16
2024-01-09T02:29:26.993Z,54.42
2024-01-09T02:32:39.042Z,54.43
2024-01-09T02:35:45.622Z,54.46
2024-01-09T02:38:51.373Z,54.60
2024-01-09T02:41:58.003Z,54.53
2024-01-09T02:45:03.788Z,54.40
2024-01-09T02:48:13.420Z,54.34
2024-01-09T02:51:19.233Z,54.47
2024-01-09T02:54:25.864Z,54.18
2024-01-09T02:57:31.564Z,53.98
2024-01-09T03:00:38.640Z,53.52
2024-01-09T03:03:47.298Z,53.92
2024-01-09T03:06:54.010Z,53.65
2024-01-09T03:10:00.050Z,53.63
2024-01-09T03:13:06.904Z,53.13
2024-01-09T03:16:14.917Z,52.85
2024-01-09T03:19:24.230Z,52.90
2024-01-09T03:22:30.451Z,52.82
2024-01-09T03:25:37.112Z,52.77
2024-01-09T03:28:43.046Z,52.70
2024-01-09T03:31:49.851Z,52.69
2024-01-09T03:34:58.143Z,52.75
2024-01-09T03:38:04.722Z,52.69
2024-01-09T03:41:10.545Z,52.91
2024-01-09T03:44:17.178Z,52.97
2024-01-09T03:47:23.059Z,53.33
2024-01-09T03:50:32.255Z,53.23
2024-01-09T03:53:37.951Z,52.96
2024-01-09T03:56:44.559Z,52.85
2024-01-09T03:59:50.311Z,52.60
2024-01-09T04:02:56.965Z,52.77
2024-01-09T04:06:06.501Z,52.76
2024-01-09T04:09:13.805Z,52.54
2024-01-09T04:12:19.556Z,52.48
2024-01-09T04:15:26.126Z,52.22
2024-01-09T04:18:32.161Z,52.03
2024-01-09T04:21:41.587Z,52.49
2024-01-09T04:24:47.393Z,53.00
2024-01-09T04:27:53.902Z,53.30
2024-01-09T04:30:59.875Z,53.57
2024-01-09T04:34:07.657Z,53.86
2024-01-09T04:37:16.219Z,53.98
2024-01-09T04:40:22.808Z,54.14
2024-01-09T04:43:28.524Z,54.12
2024-01-09T04:46:35.055Z,54.11
2024-01-09T04:49:41.033Z,53.85
2024-01-09T04:52:50.223Z,54.00
2024-01-09T04:55:55.848Z,54.29
2024-01-09T04:59:02.539Z,53.95
2024-01-09T05:02:08.191Z,53.97
2024-01-09T05:05:25.543Z,54.08
2024-01-09T05:08:35.870Z,54.02
2024-01-09T05:11:42.589Z,53.97
2024-01-09T05:15:03.445Z,53.89
2024-01-09T05:18:10.700Z,53.81
2024-01-09T05:21:28.785Z,54.08
2024-01-09T05:24:52.306Z,53.86
2024-01-09T05:27:59.080Z,54.03
2024-01-09T05:31:06.194Z,53.94
2024-01-09T05:34:12.971Z,53.89
2024-01-09T05:37:33.930Z,53.94
2024-01-09T05:40:56.532Z,54.05
2024-01-09T05:44:17.459Z,54.05
2024-01-09T05:47:24.038Z,53.95
2024-01-09T05:50:29.879Z,53.85
2024-01-09T05:53:36.481Z,54.09
2024-01-09T05:56:44.718Z,54.19
2024-01-09T05:59:51.428Z,54.02
2024-01-09T06:02:57.185Z,54.36
2024-01-09T06:06:03.781Z,54.13
2024-01-09T06:09:09.919Z,54.53
2024-01-09T06:12:19.462Z,54.58
2024-01-09T06:15:25.121Z,54.47
2024-01-09T06:18:31.855Z,54.63
2024-01-09T06:21:37.575Z,54.85
2024-01-09T06:24:44.116Z,54.72
2024-01-09T06:27:52.338Z,54.51
2024-01-09T06:30:58.944Z,54.27
2024-01-09T06:34:04.888Z,54.11
2024-01-09T06:37:11.359Z,54.36
2024-01-09T06:40:21.322Z,54.46
2024-01-09T06:43:30.624Z,54.17
2024-01-09T06:46:37.462Z,54.14
2024-01-09T06:49:43.955Z,53.82
2024-01-09T06:52:49.765Z,54.04
2024-01-09T06:55:56.267Z,54.13
2024-01-09T06:59:04.686Z,54.11
2024-01-09T07:02:11.302Z,54.24
2024-01-09T07:05:17.503Z,54.19
2024-01-09T07:08:24.141Z,54.10
2024-01-09T07:11:30.118Z,53.87
2024-01-09T07:14:39.646Z,54.02
2024-01-09T07:17:45.861Z,54.08
2024-01-09T07:20:52.576Z,54.21
2024-01-09T07:23:58.302Z,54.58
2024-01-09T07:27:04.811Z,54.86
2024-01-09T07:30:15.090Z,55.01
2024-01-09T07:33:21.719Z,55.46
2024-01-09T07:36:27.598Z,55.51
2024-01-09T07:39:34.685Z,55.75
2024-01-09T07:42:46.282Z,55.57
2024-01-09T07:46:04.805Z,55.75
2024-01-09T07:49:10.627Z,55.82
2024-01-09T07:52:17.238Z,55.96
2024-01-09T07:55:24.089Z,56.08
2024-01-09T07:58:30.981Z,56.27
2024-01-09T08:01:39.409Z,56.02
2024-01-09T08:04:45.965Z,55.70
2024-01-09T08:07:51.689Z,55.58
2024-01-09T08:10:58.228Z,55.68
2024-01-09T08:14:03.844Z,55.43
2024-01-09T08:17:13.279Z,55.28
2024-01-09T08:20:19.309Z,54.71
2024-01-09T08:23:27.178Z,55.02
2024-01-09T08:26:33.278Z,55.55
2024-01-09T08:29:39.873Z,55.62
2024-01-09T08:32:48.383Z,55.46
2024-01-09T08:35:55.139Z,55.46
2024-01-09T08:39:00.889Z,55.30
2024-01-09T08:42:08.217Z,55.22
2024-01-09T08:45:15.344Z,55.73
2024-01-09T08:48:24.927Z,56.36
2024-01-09T08:51:31.381Z,56.21
2024-01-09T08:54:38.013Z,55.70
2024-01-09T08:57:44.007Z,55.65
2024-01-09T09:00:50.779Z,56.31
2024-01-09T09:03:59.175Z,55.79
2024-01-09T09:07:05.983Z,55.41
2024-01-09T09:10:12.206Z,55.49
2024-01-09T09:13:18.711Z,55.49
2024-01-09T09:16:25.023Z,55.29
2024-01-09T09:19:34.308Z,55.58
2024-01-09T09:22:41.673Z,55.43
2024-01-09T09:25:49.419Z,55.29
2024-01-09T09:29:04.218Z,55.60
2024-01-09T09:32:18.711Z,56.17
2024-01-09T09:35:27.011Z,54.32
2024-01-09T09:38:34.702Z,53.88
2024-01-09T09:41:44.965Z,54.05
2024-01-09T09:44:56.439Z,54.03
2024-01-09T09:48:06.249Z,53.69
2024-01-09T09:51:15.747Z,53.11
2024-01-09T09:54:24.846Z,52.93
2024-01-09T09:57:31.708Z,52.56
2024-01-09T10:00:37.469Z,53.08
2024-01-09T10:03:59.009Z,53.34
2024-01-09T10:07:11.028Z,53.15
2024-01-09T10:10:18.575Z,53.13
2024-01-09T10:13:24.462Z,52.73
2024-01-09T10:16:31.837Z,52.71
2024-01-09T10:19:37.755Z,52.51
2024-01-09T10:22:47.153Z,52.67
2024-01-09T10:25:53.611Z,54.06
2024-01-09T10:29:03.307Z,53.03
2024-01-09T10:32:11.410Z,52.68
2024-01-09T10:35:18.092Z,52.56
2024-01-09T10:38:30.460Z,52.57
2024-01-09T10:41:37.911Z,52.42
2024-01-09T10:44:44.161Z,52.27
2024-01-09T10:47:54.270Z,52.13
2024-01-09T10:51:01.382Z,52.44
2024-01-09T10:54:15.826Z,54.18
2024-01-09T10:57:21.704Z,54.80
2024-01-09T11:00:32.399Z,54.84
2024-01-09T11:03:38.474Z,54.56
2024-01-09T11:06:50.483Z,54.44
2024-01-09T11:10:00.649Z,54.77
2024-01-09T11:13:12.546Z,53.33
2024-01-09T11:16:23.278Z,50.17
2024-01-09T11:19:32.531Z,49.05
2024-01-09T11:22:40.988Z,46.62
2024-01-09T11:25:54.875Z,43.83
2024-01-09T11:29:00.819Z,41.64
2024-01-09T11:32:11.254Z,39.78
2024-01-09T11:35:19.975Z,39.52
2024-01-09T11:38:26.792Z,39.13
2024-01-09T11:41:41.269Z,38.54
2024-01-09T11:44:47.942Z,38.77
2024-01-09T11:47:55.267Z,39.22
2024-01-09T11:51:03.523Z,40.33
2024-01-09T11:54:12.511Z,40.63
2024-01-09T11:57:23.346Z,40.75
2024-01-09T12:00:29.333Z,41.14
2024-01-09T12:03:36.002Z,41.40
2024-01-09T12:06:45.139Z,41.85
2024-01-09T12:09:53.140Z,41.26
2024-01-09T12:13:08.340Z,41.21
2024-01-09T12:16:23.150Z,40.62
2024-01-09T12:19:28.862Z,42.06
2024-01-09T12:22:37.559Z,42.23
2024-01-09T12:25:45.572Z,42.14
2024-01-09T12:28:56.402Z,42.86
2024-01-09T12:32:02.188Z,43.05
2024-01-09T12:35:09.296Z,43.66
2024-01-09T12:38:15.398Z,43.16
2024-01-09T12:41:25.978Z,43.48
2024-01-09T12:44:35.280Z,42.29
2024-01-09T12:47:41.891Z,43.28
2024-01-09T12:50:47.721Z,43.46
2024-01-09T12:53:54.276Z,44.00
2024-01-09T12:57:02.080Z,44.37
2024-01-09T13:00:13.583Z,45.19
2024-01-09T13:03:19.815Z,44.66
2024-01-09T13:06:28.036Z,44.48
2024-01-09T13:09:34.726Z,45.07
2024-01-09T13:12:41.337Z,45.29
2024-01-09T13:15:50.317Z,45.20
2024-01-09T13:18:57.238Z,45.92
2024-01-09T13:25:13.305Z,46.61
2024-01-09T13:28:19.324Z,46.42
2024-01-09T13:31:28.653Z,46.39
2024-01-09T13:34:35.642Z,46.65
2024-01-09T13:37:42.306Z,46.65
2024-01-09T13:40:50.031Z,46.61
2024-01-09T13:43:56.829Z,46.61
2024-01-09T13:47:05.259Z,46.79
2024-01-09T13:51:47.177Z,45.22
2024-01-09T13:53:39.044Z,45.28
2024-01-09T13:56:45.697Z,45.47
2024-01-09T13:59:51.563Z,45.67
2024-01-09T14:03:01.470Z,46.33
2024-01-09T14:06:08.342Z,46.76
2024-01-09T14:09:14.968Z,47.13
2024-01-09T14:12:22.116Z,47.10
2024-01-09T14:15:28.699Z,47.73
2024-01-09T14:18:38.844Z,47.80
2024-01-09T14:21:47.065Z,48.17
2024-01-09T14:24:53.048Z,48.12
2024-01-09T14:27:59.803Z,48.04
2024-01-09T14:31:05.631Z,48.23
2024-01-09T14:34:18.296Z,48.54
2024-01-09T14:37:25.570Z,48.77
2024-01-09T14:40:32.310Z,48.94
2024-01-09T14:43:39.752Z,49.11
2024-01-09T14:46:49.971Z,49.28
2024-01-09T14:49:58.359Z,49.38
2024-01-09T14:53:05.109Z,49.47
2024-01-09T14:56:11.003Z,49.47
2024-01-09T14:59:18.152Z,49.64
2024-01-09T15:02:24.420Z,50.00
2024-01-09T15:05:34.587Z,49.96
2024-01-09T15:08:40.524Z,50.21
2024-01-09T15:11:46.996Z,49.72
2024-01-09T15:14:52.738Z,49.82
2024-01-09T15:18:00.771Z,49.80
2024-01-09T15:21:09.478Z,49.78
2024-01-09T15:24:16.202Z,49.98
2024-01-09T15:27:23.124Z,49.87
2024-01-09T15:30:29.638Z,49.96
2024-01-09T15:33:37.076Z,49.80
2024-01-09T15:36:46.543Z,50.26
2024-01-09T15:39:52.240Z,50.63
2024-01-09T15:42:59.177Z,51.01
2024-01-09T15:46:05.192Z,50.70
2024-01-09T15:49:11.842Z,50.67
2024-01-09T15:52:20.375Z,50.60
2024-01-09T15:55:27.382Z,50.84
2024-01-09T15:58:33.135Z,51.14
2024-01-09T16:01:41.753Z,51.44
2024-01-09T16:04:47.464Z,51.61
2024-01-09T16:07:56.869Z,51.62
2024-01-09T16:11:05.504Z,51.99
2024-01-09T16:14:12.218Z,52.22
2024-01-09T16:17:23.270Z,52.54
2024-01-09T16:20:29.842Z,52.80
2024-01-09T16:23:41.184Z,52.66
2024-01-09T16:26:47.757Z,52.76
2024-01-09T16:29:54.026Z,52.59
2024-01-09T16:33:00.661Z,52.42
2024-01-09T16:36:08.614Z,52.44
2024-01-09T16:39:19.683Z,52.52
2024-01-09T16:42:25.325Z,51.87
2024-01-09T16:45:31.903Z,51.78
2024-01-09T16:48:41.854Z,51.82
2024-01-09T16:51:52.321Z,51.54
2024-01-09T16:55:00.581Z,51.32
2024-01-09T16:58:07.581Z,51.63
2024-01-09T17:01:13.293Z,51.18
2024-01-09T17:04:20.664Z,51.66
2024-01-09T17:07:26.464Z,51.43
2024-01-09T17:10:35.762Z,51.45
2024-01-09T17:13:41.496Z,51.38
2024-01-09T17:16:51.552Z,51.61
2024-01-09T17:20:00.806Z,51.51
2024-01-09T17:23:08.166Z,51.87
2024-01-09T17:26:16.648Z,52.02
2024-01-09T17:29:23.526Z,52.19
2024-01-09T17:32:29.272Z,51.99
2024-01-09T17:35:36.588Z,51.75
2024-01-09T17:38:42.544Z,51.68
2024-01-09T17:41:51.722Z,51.39
2024-01-09T17:44:57.378Z,51.70
2024-01-09T17:48:04.136Z,50.88
2024-01-09T17:51:10.015Z,51.17
2024-01-09T17:54:16.590Z,51.19
2024-01-09T17:57:25.068Z,51.21
2024-01-09T18:00:33.358Z,50.88
2024-01-09T18:03:39.576Z,51.09
2024-01-09T18:06:48.410Z,51.09
2024-01-09T18:09:54.204Z,51.11
2024-01-09T18:13:03.634Z,51.31
2024-01-09T18:16:14.175Z,51.06
2024-01-09T18:19:21.064Z,51.04
2024-01-09T18:22:26.973Z,50.80
2024-01-09T18:25:33.845Z,50.96
2024-01-09T18:28:45.336Z,50.82
2024-01-09T18:31:52.807Z,50.83
2024-01-09T18:34:59.325Z,51.55
2024-01-09T18:38:06.188Z,51.59
2024-01-09T18:41:11.933Z,51.94
2024-01-09T18:44:21.266Z,52.13
2024-01-09T18:47:27.111Z,52.54
2024-01-09T18:50:33.713Z,52.83
2024-01-09T18:53:40.476Z,53.02
2024-01-09T18:56:49.722Z,53.16
2024-01-09T18:59:59.167Z,52.70
2024-01-09T19:03:06.004Z,52.97
2024-01-09T19:06:11.780Z,52.79
2024-01-09T19:09:18.455Z,53.12
2024-01-09T19:12:24.154Z,52.96
2024-01-09T19:15:33.614Z,53.08
2024-01-09T19:18:40.000Z,53.03
2024-01-09T19:21:47.503Z,53.36
2024-01-09T19:24:53.232Z,53.24
2024-01-09T19:27:59.736Z,53.45
2024-01-09T19:31:08.810Z,53.37
2024-01-09T19:34:16.073Z,53.25
2024-01-09T19:37:21.846Z,53.24
2024-01-09T19:40:29.675Z,52.66
2024-01-09T19:43:35.433Z,52.58
2024-01-09T19:46:45.924Z,52.98
2024-01-09T19:49:52.679Z,53.13
2024-01-09T19:52:59.317Z,53.16
2024-01-09T19:56:05.231Z,53.32
2024-01-09T19:59:12.113Z,53.12
2024-01-09T20:02:20.842Z,53.04
2024-01-09T20:05:27.661Z,52.93
2024-01-09T20:08:33.861Z,53.07
2024-01-09T20:11:40.792Z,53.14
2024-01-09T20:14:46.488Z,53.27
2024-01-09T20:17:55.857Z,53.28
2024-01-09T20:21:01.468Z,53.09
2024-01-09T20:24:08.765Z,53.18
2024-01-09T20:27:14.520Z,53.22
2024-01-09T20:30:22.494Z,52.96
2024-01-09T20:33:31.176Z,53.45
2024-01-09T20:36:37.875Z,53.67
2024-01-09T20:39:43.993Z,53.60
2024-01-09T20:42:52.222Z,53.81
2024-01-09T20:45:59.819Z,53.94
2024-01-09T20:49:09.310Z,54.19
2024-01-09T20:52:14.915Z,53.80
2024-01-09T20:55:22.925Z,53.66
2024-01-09T20:58:28.754Z,53.69
2024-01-09T21:01:39.313Z,53.72
2024-01-09T21:04:47.842Z,53.88
2024-01-09T21:07:54.497Z,54.24
2024-01-09T21:11:00.395Z,54.14
2024-01-09T21:14:07.252Z,54.03
2024-01-09T21:17:13.268Z,53.78
2024-01-09T21:20:22.700Z,53.66
2024-01-09T21:23:35.398Z,53.76
2024-01-09T21:26:47.991Z,53.66
2024-01-09T21:29:53.681Z,53.69
2024-01-09T21:33:00.620Z,53.71
2024-01-09T21:36:10.965Z,53.67
2024-01-09T21:39:17.537Z,54.10
2024-01-09T21:42:24.880Z,54.06
2024-01-09T21:45:31.521Z,54.36
2024-01-09T21:48:40.341Z,54.65
2024-01-09T21:51:49.593Z,54.69
2024-01-09T21:54:55.471Z,54.92
2024-01-09T21:58:03.484Z,55.14
2024-01-09T22:01:10.222Z,55.27
2024-01-09T22:04:17.228Z,55.05
2024-01-09T22:07:25.627Z,54.94
2024-01-09T22:10:33.366Z,55.21
2024-01-09T22:13:39.127Z,55.15
2024-01-09T22:16:46.984Z,55.04
2024-01-09T22:19:52.835Z,54.55
2024-01-09T22:23:02.030Z,54.07
2024-01-09T22:26:08.236Z,54.06
2024-01-09T22:29:14.894Z,53.97
2024-01-09T22:32:20.669Z,53.60
2024-01-09T22:35:27.287Z,53.73
2024-01-09T22:38:35.574Z,53.53
2024-01-09T22:41:42.188Z,53.58
2024-01-09T22:44:47.972Z,53.47
2024-01-09T22:47:54.566Z,53.40
2024-01-09T22:51:00.325Z,54.13
2024-01-09T22:54:09.785Z,54.28
2024-01-09T22:57:15.472Z,54.27
2024-01-09T23:00:24.074Z,54.26
2024-01-09T23:03:29.842Z,54.10
2024-01-09T23:06:36.527Z,54.03
2024-01-09T23:09:44.997Z,54.05
2024-01-09T23:12:51.958Z,53.95
2024-01-09T23:15:58.011Z,54.18
2024-01-09T23:19:04.726Z,54.08
2024-01-09T23:22:10.633Z,53.93
2024-01-09T23:25:19.931Z,53.54
2024-01-09T23:28:25.976Z,53.79
2024-01-09T23:31:32.735Z,53.63
2024-01-09T23:34:48.713Z,53.50
2024-01-09T23:38:00.571Z,54.14
2024-01-09T23:41:09.584Z,54.09
2024-01-09T23:44:16.342Z,53.80
2024-01-09T23:47:22.304Z,53.65
2024-01-09T23:50:29.240Z,53.97
2024-01-09T23:53:34.972Z,53.74
2024-01-09T23:56:44.143Z,53.66
2024-01-09T23:59:49.855Z,53.62
